sensor_id;sensor_type;location;lat;lon;timestamp;pressure;altitude;pressure_sealevel;temperature;humidity
18137;BME280;9194;42.632;23.298;2023-01-30T00:02:01;58723.03;;;-142.65;100.00
18137;BME280;9194;42.632;23.298;2023-01-30T00:07:03;58723.03;;;-142.65;100.00
18137;BME280;9194;42.632;23.298;2023-01-30T00:12:04;58723.03;;;-142.65;100.00
18137;BME280;9194;42.632;23.298;2023-01-30T00:17:06;58723.03;;;-142.65;100.00
18137;BME280;9194;42.632;23.298;2023-01-30T00:22:07;58723.03;;;-142.65;100.00
18137;BME280;9194;42.632;23.298;2023-01-30T00:27:08;58723.03;;;-142.65;100.00
18137;BME280;9194;42.632;23.298;2023-01-30T00:32:10;58723.03;;;-142.65;100.00
18137;BME280;9194;42.632;23.298;2023-01-30T00:37:14;58723.03;;;-142.65;100.00
18137;BME280;9194;42.632;23.298;2023-01-30T00:42:15;58723.03;;;-142.65;100.00
18137;BME280;9194;42.632;23.298;2023-01-30T00:47:35;58723.03;;;-142.65;100.00
18137;BME280;9194;42.632;23.298;2023-01-30T00:52:37;58723.03;;;-142.65;100.00
18137;BME280;9194;42.632;23.298;2023-01-30T00:57:38;58723.03;;;-142.65;100.00
18137;BME280;9194;42.632;23.298;2023-01-30T01:02:39;58723.03;;;-142.65;100.00
18137;BME280;9194;42.632;23.298;2023-01-30T01:07:41;58723.03;;;-142.65;100.00
18137;BME280;9194;42.632;23.298;2023-01-30T01:12:43;58723.03;;;-142.65;100.00
18137;BME280;9194;42.632;23.298;2023-01-30T01:17:44;58723.03;;;-142.65;100.00
18137;BME280;9194;42.632;23.298;2023-01-30T01:22:46;58723.03;;;-142.65;100.00
18137;BME280;9194;42.632;23.298;2023-01-30T01:27:50;58723.03;;;-142.65;100.00
18137;BME280;9194;42.632;23.298;2023-01-30T01:32:52;58723.03;;;-142.65;100.00
18137;BME280;9194;42.632;23.298;2023-01-30T01:37:54;58723.03;;;-142.65;100.00
18137;BME280;9194;42.632;23.298;2023-01-30T01:42:55;58723.03;;;-142.65;100.00
18137;BME280;9194;42.632;23.298;2023-01-30T01:48:04;58723.03;;;-142.65;100.00
18137;BME280;9194;42.632;23.298;2023-01-30T01:53:11;58723.03;;;-142.65;100.00
18137;BME280;9194;42.632;23.298;2023-01-30T01:58:25;58723.03;;;-142.65;100.00
18137;BME280;9194;42.632;23.298;2023-01-30T02:03:32;58723.03;;;-142.65;100.00
18137;BME280;9194;42.632;23.298;2023-01-30T02:08:48;58723.03;;;-142.65;100.00
18137;BME280;9194;42.632;23.298;2023-01-30T02:13:53;58723.03;;;-142.65;100.00
18137;BME280;9194;42.632;23.298;2023-01-30T02:18:56;58723.03;;;-142.65;100.00
18137;BME280;9194;42.632;23.298;2023-01-30T02:34:55;58723.03;;;-142.65;100.00
18137;BME280;9194;42.632;23.298;2023-01-30T02:50:53;58723.03;;;-142.65;100.00
18137;BME280;9194;42.632;23.298;2023-01-30T02:55:57;58723.03;;;-142.65;100.00
18137;BME280;9194;42.632;23.298;2023-01-30T03:12:14;58723.03;;;-142.65;100.00
18137;BME280;9194;42.632;23.298;2023-01-30T03:17:19;58723.03;;;-142.65;100.00
18137;BME280;9194;42.632;23.298;2023-01-30T03:22:23;58723.03;;;-142.65;100.00
18137;BME280;9194;42.632;23.298;2023-01-30T03:27:25;58723.03;;;-142.65;100.00
18137;BME280;9194;42.632;23.298;2023-01-30T03:32:27;58723.03;;;-142.65;100.00
18137;BME280;9194;42.632;23.298;2023-01-30T03:37:29;58723.03;;;-142.65;100.00
18137;BME280;9194;42.632;23.298;2023-01-30T03:42:32;58723.03;;;-142.65;100.00
18137;BME280;9194;42.632;23.298;2023-01-30T03:47:33;58723.03;;;-142.65;100.00
18137;BME280;9194;42.632;23.298;2023-01-30T03:52:35;58723.03;;;-142.65;100.00
18137;BME280;9194;42.632;23.298;2023-01-30T03:57:36;58723.03;;;-142.65;100.00
18137;BME280;9194;42.632;23.298;2023-01-30T04:02:38;58723.03;;;-142.65;100.00
18137;BME280;9194;42.632;23.298;2023-01-30T04:07:42;58723.03;;;-142.65;100.00
18137;BME280;9194;42.632;23.298;2023-01-30T04:12:45;58723.03;;;-142.65;100.00
18137;BME280;9194;42.632;23.298;2023-01-30T04:17:47;58723.03;;;-142.65;100.00
18137;BME280;9194;42.632;23.298;2023-01-30T04:22:57;58723.03;;;-142.65;100.00
18137;BME280;9194;42.632;23.298;2023-01-30T04:28:01;58723.03;;;-142.65;100.00
18137;BME280;9194;42.632;23.298;2023-01-30T04:33:07;58723.03;;;-142.65;100.00
18137;BME280;9194;42.632;23.298;2023-01-30T04:38:09;58723.03;;;-142.65;100.00
18137;BME280;9194;42.632;23.298;2023-01-30T04:43:11;58723.03;;;-142.65;100.00
18137;BME280;9194;42.632;23.298;2023-01-30T04:48:47;58723.03;;;-142.65;100.00
18137;BME280;9194;42.632;23.298;2023-01-30T04:53:49;58723.03;;;-142.65;100.00
18137;BME280;9194;42.632;23.298;2023-01-30T04:58:51;58723.03;;;-142.65;100.00
18137;BME280;9194;42.632;23.298;2023-01-30T05:03:56;58723.03;;;-142.65;100.00
18137;BME280;9194;42.632;23.298;2023-01-30T05:08:58;58723.03;;;-142.65;100.00
18137;BME280;9194;42.632;23.298;2023-01-30T05:13:59;58723.03;;;-142.65;100.00
18137;BME280;9194;42.632;23.298;2023-01-30T05:19:01;58723.03;;;-142.65;100.00
18137;BME280;9194;42.632;23.298;2023-01-30T05:24:02;58723.03;;;-142.65;100.00
18137;BME280;9194;42.632;23.298;2023-01-30T05:29:03;58723.03;;;-142.65;100.00
18137;BME280;9194;42.632;23.298;2023-01-30T05:34:05;58723.03;;;-142.65;100.00
18137;BME280;9194;42.632;23.298;2023-01-30T05:39:06;58723.03;;;-142.65;100.00
18137;BME280;9194;42.632;23.298;2023-01-30T05:44:08;58723.03;;;-142.65;100.00
18137;BME280;9194;42.632;23.298;2023-01-30T05:49:09;58723.03;;;-142.65;100.00
18137;BME280;9194;42.632;23.298;2023-01-30T05:54:11;58723.03;;;-142.65;100.00
18137;BME280;9194;42.632;23.298;2023-01-30T05:59:12;58723.03;;;-142.65;100.00
18137;BME280;9194;42.632;23.298;2023-01-30T06:04:15;58723.03;;;-142.65;100.00
18137;BME280;9194;42.632;23.298;2023-01-30T06:09:16;58723.03;;;-142.65;100.00
18137;BME280;9194;42.632;23.298;2023-01-30T06:14:18;58723.03;;;-142.65;100.00
18137;BME280;9194;42.632;23.298;2023-01-30T06:19:19;58723.03;;;-142.65;100.00
18137;BME280;9194;42.632;23.298;2023-01-30T06:24:20;58723.03;;;-142.65;100.00
18137;BME280;9194;42.632;23.298;2023-01-30T06:29:22;58723.03;;;-142.65;100.00
18137;BME280;9194;42.632;23.298;2023-01-30T06:34:23;58723.03;;;-142.65;100.00
18137;BME280;9194;42.632;23.298;2023-01-30T06:39:24;58723.03;;;-142.65;100.00
18137;BME280;9194;42.632;23.298;2023-01-30T06:44:25;58723.03;;;-142.65;100.00
18137;BME280;9194;42.632;23.298;2023-01-30T06:49:27;58723.03;;;-142.65;100.00
18137;BME280;9194;42.632;23.298;2023-01-30T06:54:31;58723.03;;;-142.65;100.00
18137;BME280;9194;42.632;23.298;2023-01-30T06:59:32;58723.03;;;-142.65;100.00
18137;BME280;9194;42.632;23.298;2023-01-30T07:04:33;58723.03;;;-142.65;100.00
18137;BME280;9194;42.632;23.298;2023-01-30T07:09:35;58723.03;;;-142.65;100.00
18137;BME280;9194;42.632;23.298;2023-01-30T07:14:36;58723.03;;;-142.65;100.00
18137;BME280;9194;42.632;23.298;2023-01-30T07:19:37;58723.03;;;-142.65;100.00
18137;BME280;9194;42.632;23.298;2023-01-30T07:24:39;58723.03;;;-142.65;100.00
18137;BME280;9194;42.632;23.298;2023-01-30T07:29:40;58723.03;;;-142.65;100.00
18137;BME280;9194;42.632;23.298;2023-01-30T07:34:41;58723.03;;;-142.65;100.00
18137;BME280;9194;42.632;23.298;2023-01-30T07:39:43;58723.03;;;-142.65;100.00
18137;BME280;9194;42.632;23.298;2023-01-30T07:44:44;58723.03;;;-142.65;100.00
18137;BME280;9194;42.632;23.298;2023-01-30T07:49:45;58723.03;;;-142.65;100.00
18137;BME280;9194;42.632;23.298;2023-01-30T07:54:47;58723.03;;;-142.65;100.00
18137;BME280;9194;42.632;23.298;2023-01-30T07:59:48;58723.03;;;-142.65;100.00
18137;BME280;9194;42.632;23.298;2023-01-30T08:04:49;58723.03;;;-142.65;100.00
18137;BME280;9194;42.632;23.298;2023-01-30T08:09:51;58723.03;;;-142.65;100.00
18137;BME280;9194;42.632;23.298;2023-01-30T08:14:52;58723.03;;;-142.65;100.00
18137;BME280;9194;42.632;23.298;2023-01-30T08:19:53;58723.03;;;-142.65;100.00
18137;BME280;9194;42.632;23.298;2023-01-30T08:24:55;58723.03;;;-142.65;100.00
18137;BME280;9194;42.632;23.298;2023-01-30T08:29:56;58723.03;;;-142.65;100.00
18137;BME280;9194;42.632;23.298;2023-01-30T08:34:57;58723.03;;;-142.65;100.00
18137;BME280;9194;42.632;23.298;2023-01-30T08:39:59;58723.03;;;-142.65;100.00
18137;BME280;9194;42.632;23.298;2023-01-30T08:45:00;58723.03;;;-142.65;100.00
18137;BME280;9194;42.632;23.298;2023-01-30T08:50:03;58723.03;;;-142.65;100.00
18137;BME280;9194;42.632;23.298;2023-01-30T08:55:05;58723.03;;;-142.65;100.00
18137;BME280;9194;42.632;23.298;2023-01-30T09:00:07;58723.03;;;-142.65;100.00
18137;BME280;9194;42.632;23.298;2023-01-30T09:05:09;58723.03;;;-142.65;100.00
18137;BME280;9194;42.632;23.298;2023-01-30T09:10:11;58723.03;;;-142.65;100.00
18137;BME280;9194;42.632;23.298;2023-01-30T09:15:12;58723.03;;;-142.65;100.00
18137;BME280;9194;42.632;23.298;2023-01-30T09:20:14;58723.03;;;-142.65;100.00
18137;BME280;9194;42.632;23.298;2023-01-30T09:25:15;58723.03;;;-142.65;100.00
18137;BME280;9194;42.632;23.298;2023-01-30T09:30:17;58723.03;;;-142.65;100.00
18137;BME280;9194;42.632;23.298;2023-01-30T09:35:19;58723.03;;;-142.65;100.00
18137;BME280;9194;42.632;23.298;2023-01-30T09:40:26;58723.03;;;-142.65;100.00
18137;BME280;9194;42.632;23.298;2023-01-30T09:45:49;58723.03;;;-142.65;100.00
18137;BME280;9194;42.632;23.298;2023-01-30T09:56:16;58723.03;;;-142.65;100.00
18137;BME280;9194;42.632;23.298;2023-01-30T10:06:35;58723.03;;;-142.65;100.00
18137;BME280;9194;42.632;23.298;2023-01-30T10:12:09;58723.03;;;-142.65;100.00
18137;BME280;9194;42.632;23.298;2023-01-30T10:33:27;58723.03;;;-142.65;100.00
18137;BME280;9194;42.632;23.298;2023-01-30T10:38:36;58723.03;;;-142.65;100.00
18137;BME280;9194;42.632;23.298;2023-01-30T10:43:44;58723.03;;;-142.65;100.00
18137;BME280;9194;42.632;23.298;2023-01-30T10:48:57;58723.03;;;-142.65;100.00
18137;BME280;9194;42.632;23.298;2023-01-30T10:54:27;58723.03;;;-142.65;100.00
18137;BME280;9194;42.632;23.298;2023-01-30T11:05:03;58723.03;;;-142.65;100.00
18137;BME280;9194;42.632;23.298;2023-01-30T11:10:19;58723.03;;;-142.65;100.00
18137;BME280;9194;42.632;23.298;2023-01-30T11:15:21;58723.03;;;-142.65;100.00
18137;BME280;9194;42.632;23.298;2023-01-30T11:20:25;58723.03;;;-142.65;100.00
18137;BME280;9194;42.632;23.298;2023-01-30T11:25:27;58723.03;;;-142.65;100.00
18137;BME280;9194;42.632;23.298;2023-01-30T11:30:32;58723.03;;;-142.65;100.00
18137;BME280;9194;42.632;23.298;2023-01-30T11:35:39;58723.03;;;-142.65;100.00
18137;BME280;9194;42.632;23.298;2023-01-30T11:40:42;58723.03;;;-142.65;100.00
18137;BME280;9194;42.632;23.298;2023-01-30T11:45:46;58723.03;;;-142.65;100.00
18137;BME280;9194;42.632;23.298;2023-01-30T11:50:54;58723.03;;;-142.65;100.00
18137;BME280;9194;42.632;23.298;2023-01-30T11:56:02;58723.03;;;-142.65;100.00
18137;BME280;9194;42.632;23.298;2023-01-30T12:01:07;58723.03;;;-142.65;100.00
18137;BME280;9194;42.632;23.298;2023-01-30T12:06:10;58723.03;;;-142.65;100.00
18137;BME280;9194;42.632;23.298;2023-01-30T12:27:58;58723.03;;;-142.65;100.00
18137;BME280;9194;42.632;23.298;2023-01-30T12:33:04;58723.03;;;-142.65;100.00
18137;BME280;9194;42.632;23.298;2023-01-30T12:38:32;58723.03;;;-142.65;100.00
18137;BME280;9194;42.632;23.298;2023-01-30T12:43:49;58723.03;;;-142.65;100.00
18137;BME280;9194;42.632;23.298;2023-01-30T13:00:08;58723.03;;;-142.65;100.00
18137;BME280;9194;42.632;23.298;2023-01-30T13:05:24;58723.03;;;-142.65;100.00
18137;BME280;9194;42.632;23.298;2023-01-30T13:29:37;92194.13;;;1.42;81.32
18137;BME280;9194;42.632;23.298;2023-01-30T13:34:42;92188.41;;;1.26;79.47
18137;BME280;9194;42.632;23.298;2023-01-30T13:39:51;92188.50;;;1.32;80.81
18137;BME280;9194;42.632;23.298;2023-01-30T13:44:55;92177.69;;;0.93;80.66
18137;BME280;9194;42.632;23.298;2023-01-30T14:00:54;92179.41;;;0.17;82.46
18137;BME280;9194;42.632;23.298;2023-01-30T14:10:59;92178.19;;;0.05;89.82
18137;BME280;9194;42.632;23.298;2023-01-30T14:16:02;92170.25;;;0.23;89.35
18137;BME280;9194;42.632;23.298;2023-01-30T14:26:59;92182.16;;;0.30;86.26
18137;BME280;9194;42.632;23.298;2023-01-30T14:32:00;92180.75;;;0.28;86.45
18137;BME280;9194;42.632;23.298;2023-01-30T14:42:37;92176.16;;;-0.30;91.01
18137;BME280;9194;42.632;23.298;2023-01-30T14:47:41;92177.50;;;-0.51;91.76
18137;BME280;9194;42.632;23.298;2023-01-30T14:52:42;92168.94;;;-0.66;92.67
18137;BME280;9194;42.632;23.298;2023-01-30T14:58:14;92163.91;;;-0.90;92.22
18137;BME280;9194;42.632;23.298;2023-01-30T15:03:19;92151.50;;;-1.09;93.92
18137;BME280;9194;42.632;23.298;2023-01-30T15:08:22;92166.88;;;-1.26;96.06
18137;BME280;9194;42.632;23.298;2023-01-30T15:19:03;92166.28;;;-1.52;99.99
18137;BME280;9194;42.632;23.298;2023-01-30T15:34:30;92189.84;;;-1.98;100.00
18137;BME280;9194;42.632;23.298;2023-01-30T15:39:34;92187.75;;;-2.11;100.00
18137;BME280;9194;42.632;23.298;2023-01-30T15:50:04;92190.38;;;-2.37;100.00
18137;BME280;9194;42.632;23.298;2023-01-30T15:55:15;92189.25;;;-2.42;100.00
18137;BME280;9194;42.632;23.298;2023-01-30T16:00:25;92187.66;;;-2.52;100.00
18137;BME280;9194;42.632;23.298;2023-01-30T16:05:27;92193.66;;;-2.61;100.00
18137;BME280;9194;42.632;23.298;2023-01-30T16:10:29;92189.88;;;-2.57;100.00
18137;BME280;9194;42.632;23.298;2023-01-30T16:15:38;92169.16;;;-2.54;100.00
18137;BME280;9194;42.632;23.298;2023-01-30T16:20:45;92162.28;;;-2.61;100.00
18137;BME280;9194;42.632;23.298;2023-01-30T16:25:48;92169.72;;;-2.76;100.00
18137;BME280;9194;42.632;23.298;2023-01-30T16:30:57;92172.03;;;-2.91;100.00
18137;BME280;9194;42.632;23.298;2023-01-30T16:35:59;92167.53;;;-2.97;100.00
18137;BME280;9194;42.632;23.298;2023-01-30T16:41:01;92163.03;;;-3.11;100.00
18137;BME280;9194;42.632;23.298;2023-01-30T16:51:28;92168.38;;;-3.22;100.00
18137;BME280;9194;42.632;23.298;2023-01-30T16:56:31;92161.16;;;-3.35;100.00
18137;BME280;9194;42.632;23.298;2023-01-30T17:01:39;92159.56;;;-3.36;100.00
18137;BME280;9194;42.632;23.298;2023-01-30T17:06:41;92155.88;;;-3.41;100.00
18137;BME280;9194;42.632;23.298;2023-01-30T17:11:43;92178.56;;;-3.48;100.00
18137;BME280;9194;42.632;23.298;2023-01-30T17:16:45;92178.69;;;-3.49;100.00
18137;BME280;9194;42.632;23.298;2023-01-30T17:21:49;92169.25;;;-3.39;100.00
18137;BME280;9194;42.632;23.298;2023-01-30T17:26:58;92166.91;;;-3.33;100.00
18137;BME280;9194;42.632;23.298;2023-01-30T17:32:07;92172.16;;;-3.26;100.00
18137;BME280;9194;42.632;23.298;2023-01-30T17:37:17;92164.59;;;-3.18;100.00
18137;BME280;9194;42.632;23.298;2023-01-30T17:42:23;92158.06;;;-3.20;100.00
18137;BME280;9194;42.632;23.298;2023-01-30T17:47:24;92150.56;;;-3.22;100.00
18137;BME280;9194;42.632;23.298;2023-01-30T17:52:26;92130.41;;;-3.15;100.00
18137;BME280;9194;42.632;23.298;2023-01-30T17:57:28;92155.88;;;-3.07;100.00
18137;BME280;9194;42.632;23.298;2023-01-30T18:02:30;92147.03;;;-2.95;100.00
18137;BME280;9194;42.632;23.298;2023-01-30T18:07:32;92125.25;;;-2.90;100.00
18137;BME280;9194;42.632;23.298;2023-01-30T18:12:34;92129.31;;;-2.71;100.00
18137;BME280;9194;42.632;23.298;2023-01-30T18:17:41;92134.88;;;-2.75;100.00
18137;BME280;9194;42.632;23.298;2023-01-30T18:22:44;92144.72;;;-2.72;100.00
18137;BME280;9194;42.632;23.298;2023-01-30T18:27:45;92141.06;;;-2.78;100.00
18137;BME280;9194;42.632;23.298;2023-01-30T18:32:47;92139.78;;;-2.82;100.00
18137;BME280;9194;42.632;23.298;2023-01-30T18:37:49;92139.00;;;-2.74;100.00
18137;BME280;9194;42.632;23.298;2023-01-30T18:42:51;92145.06;;;-2.75;100.00
18137;BME280;9194;42.632;23.298;2023-01-30T18:47:52;92137.41;;;-2.67;100.00
18137;BME280;9194;42.632;23.298;2023-01-30T18:52:54;92137.47;;;-2.59;100.00
18137;BME280;9194;42.632;23.298;2023-01-30T18:57:57;92139.38;;;-2.53;100.00
18137;BME280;9194;42.632;23.298;2023-01-30T19:02:58;92125.22;;;-2.47;100.00
18137;BME280;9194;42.632;23.298;2023-01-30T19:08:00;92145.94;;;-2.51;100.00
18137;BME280;9194;42.632;23.298;2023-01-30T19:13:01;92138.28;;;-2.42;100.00
18137;BME280;9194;42.632;23.298;2023-01-30T19:18:25;92151.84;;;-2.42;100.00
18137;BME280;9194;42.632;23.298;2023-01-30T19:23:27;92147.38;;;-2.40;100.00
18137;BME280;9194;42.632;23.298;2023-01-30T19:28:29;92152.66;;;-2.33;100.00
18137;BME280;9194;42.632;23.298;2023-01-30T19:33:31;92135.56;;;-2.49;100.00
18137;BME280;9194;42.632;23.298;2023-01-30T19:38:33;92096.56;;;-2.41;100.00
18137;BME280;9194;42.632;23.298;2023-01-30T19:43:36;92095.47;;;-2.39;100.00
18137;BME280;9194;42.632;23.298;2023-01-30T19:48:38;92107.91;;;-2.28;100.00
18137;BME280;9194;42.632;23.298;2023-01-30T19:53:41;92116.81;;;-2.40;100.00
18137;BME280;9194;42.632;23.298;2023-01-30T19:58:42;92106.94;;;-2.35;100.00
18137;BME280;9194;42.632;23.298;2023-01-30T20:03:44;92084.97;;;-2.28;100.00
18137;BME280;9194;42.632;23.298;2023-01-30T20:08:47;92089.72;;;-2.41;100.00
18137;BME280;9194;42.632;23.298;2023-01-30T20:13:51;92080.31;;;-2.32;100.00
18137;BME280;9194;42.632;23.298;2023-01-30T20:19:05;92074.28;;;-2.31;100.00
18137;BME280;9194;42.632;23.298;2023-01-30T20:24:08;92067.25;;;-2.37;100.00
18137;BME280;9194;42.632;23.298;2023-01-30T20:29:10;92062.50;;;-2.40;100.00
18137;BME280;9194;42.632;23.298;2023-01-30T20:34:13;92063.13;;;-2.30;100.00
18137;BME280;9194;42.632;23.298;2023-01-30T20:39:15;92067.91;;;-2.35;100.00
18137;BME280;9194;42.632;23.298;2023-01-30T20:44:17;92054.03;;;-2.09;100.00
18137;BME280;9194;42.632;23.298;2023-01-30T20:49:20;92049.25;;;-0.85;73.09
18137;BME280;9194;42.632;23.298;2023-01-30T20:54:22;92049.75;;;0.10;63.50
18137;BME280;9194;42.632;23.298;2023-01-30T20:59:24;92066.41;;;-0.40;79.55
18137;BME280;9194;42.632;23.298;2023-01-30T21:04:27;92060.13;;;-0.83;85.05
18137;BME280;9194;42.632;23.298;2023-01-30T21:09:28;92048.56;;;-0.48;68.66
18137;BME280;9194;42.632;23.298;2023-01-30T21:14:29;92066.84;;;0.09;64.89
18137;BME280;9194;42.632;23.298;2023-01-30T21:19:31;92065.22;;;0.31;62.73
18137;BME280;9194;42.632;23.298;2023-01-30T21:24:51;92042.38;;;0.59;61.62
18137;BME280;9194;42.632;23.298;2023-01-30T21:30:11;92028.00;;;0.72;58.83
18137;BME280;9194;42.632;23.298;2023-01-30T21:35:31;92044.97;;;0.73;65.28
18137;BME280;9194;42.632;23.298;2023-01-30T21:40:51;92048.69;;;0.04;76.50
18137;BME280;9194;42.632;23.298;2023-01-30T21:46:32;92050.75;;;-0.37;83.40
18137;BME280;9194;42.632;23.298;2023-01-30T21:51:54;92048.50;;;-0.63;87.19
18137;BME280;9194;42.632;23.298;2023-01-30T21:57:14;92038.22;;;-0.55;85.94
18137;BME280;9194;42.632;23.298;2023-01-30T22:02:34;92043.19;;;-0.30;79.29
18137;BME280;9194;42.632;23.298;2023-01-30T22:07:53;92046.53;;;0.60;62.42
18137;BME280;9194;42.632;23.298;2023-01-30T22:13:13;92054.38;;;1.17;59.27
18137;BME280;9194;42.632;23.298;2023-01-30T22:18:37;92061.69;;;1.35;58.97
18137;BME280;9194;42.632;23.298;2023-01-30T22:23:57;92063.84;;;1.67;57.59
18137;BME280;9194;42.632;23.298;2023-01-30T22:29:17;92049.84;;;1.70;57.79
18137;BME280;9194;42.632;23.298;2023-01-30T22:34:37;92051.97;;;1.66;59.22
18137;BME280;9194;42.632;23.298;2023-01-30T22:39:57;92050.13;;;1.75;59.87
18137;BME280;9194;42.632;23.298;2023-01-30T22:45:17;92042.22;;;1.76;63.45
18137;BME280;9194;42.632;23.298;2023-01-30T22:50:37;92053.59;;;1.67;65.16
18137;BME280;9194;42.632;23.298;2023-01-30T22:55:58;92057.38;;;1.71;64.50
18137;BME280;9194;42.632;23.298;2023-01-30T23:01:25;92045.44;;;1.63;68.35
18137;BME280;9194;42.632;23.298;2023-01-30T23:06:46;92055.09;;;1.61;68.50
18137;BME280;9194;42.632;23.298;2023-01-30T23:12:06;92042.03;;;1.56;74.97
18137;BME280;9194;42.632;23.298;2023-01-30T23:17:44;92037.69;;;1.57;81.37
18137;BME280;9194;42.632;23.298;2023-01-30T23:23:22;92032.56;;;1.78;89.33
18137;BME280;9194;42.632;23.298;2023-01-30T23:28:43;92036.72;;;2.00;86.56
18137;BME280;9194;42.632;23.298;2023-01-30T23:34:05;92041.06;;;2.00;87.42
18137;BME280;9194;42.632;23.298;2023-01-30T23:39:25;92039.88;;;1.81;92.90
18137;BME280;9194;42.632;23.298;2023-01-30T23:44:45;92014.84;;;1.62;94.74
18137;BME280;9194;42.632;23.298;2023-01-30T23:50:05;91995.25;;;1.76;90.22
18137;BME280;9194;42.632;23.298;2023-01-30T23:55:25;92002.81;;;1.84;88.56
